createdAt,value
2022-10-23T00:01:45.488Z,99497.31
2022-10-23T00:04:16.382Z,99506.53
2022-10-23T00:06:43.336Z,99500.59
2022-10-23T00:09:12.624Z,99503.38
2022-10-23T00:11:39.601Z,99502.44
2022-10-23T00:14:06.847Z,99497.06
2022-10-23T00:16:33.626Z,99498.72
2022-10-23T00:19:00.105Z,99501.28
2022-10-23T00:21:26.866Z,99507.53
2022-10-23T00:23:53.406Z,99502.16
2022-10-23T00:26:19.891Z,99502.91
2022-10-23T00:28:50.978Z,99501.84
2022-10-23T00:31:17.835Z,99500.03
2022-10-23T00:33:44.455Z,99500.09
2022-10-23T00:36:12.135Z,99498.34
2022-10-23T00:38:38.559Z,99489.28
2022-10-23T00:41:05.770Z,99494.81
2022-10-23T00:43:32.923Z,99492.19
2022-10-23T00:45:59.432Z,99491.53
2022-10-23T00:48:27.383Z,99488.13
2022-10-23T00:50:54.605Z,99492.75
2022-10-23T00:53:21.624Z,99483.94
2022-10-23T00:55:50.381Z,99487.66
2022-10-23T00:58:17.696Z,99483.25
2022-10-23T01:00:45.981Z,99493.16
2022-10-23T01:03:13.862Z,99488.72
2022-10-23T01:05:51.640Z,99496.94
2022-10-23T01:08:36.940Z,99485.50
2022-10-23T01:11:25.540Z,99484.56
2022-10-23T01:13:57.855Z,99486.50
2022-10-23T01:16:31.146Z,99492.88
2022-10-23T01:19:07.797Z,99497.47
2022-10-23T01:21:55.321Z,99493.13
2022-10-23T01:24:37.519Z,99492.38
2022-10-23T01:27:19.172Z,99496.06
2022-10-23T01:30:08.878Z,99494.47
2022-10-23T01:32:40.506Z,99494.72
2022-10-23T01:35:14.879Z,99494.06
2022-10-23T01:38:04.683Z,99491.31
2022-10-23T01:40:36.862Z,99495.84
2022-10-23T01:43:08.647Z,99490.56
2022-10-23T01:45:43.523Z,99487.06
2022-10-23T01:48:12.149Z,99484.44
2022-10-23T01:50:40.086Z,99494.31
2022-10-23T01:53:06.609Z,99491.69
2022-10-23T01:55:33.578Z,99494.44
2022-10-23T01:58:02.556Z,99492.66
2022-10-23T02:00:29.847Z,99502.63
2022-10-23T02:02:57.446Z,99490.13
2022-10-23T02:05:28.679Z,99497.94
2022-10-23T02:07:55.834Z,99488.94
2022-10-23T02:10:29.319Z,99495.25
2022-10-23T02:13:07.893Z,99484.50
2022-10-23T02:15:37.486Z,99483.44
2022-10-23T02:18:07.461Z,99487.06
2022-10-23T02:20:41.152Z,99488.03
2022-10-23T02:23:15.344Z,99484.50
2022-10-23T02:25:48.845Z,99489.94
2022-10-23T02:28:18.430Z,99478.41
2022-10-23T02:30:46.705Z,99478.47
2022-10-23T02:33:14.063Z,99475.97
2022-10-23T02:35:40.629Z,99469.84
2022-10-23T02:38:25.913Z,99466.69
2022-10-23T02:40:53.024Z,99475.03
2022-10-23T02:43:28.607Z,99468.19
2022-10-23T02:45:58.060Z,99467.41
2022-10-23T02:48:30.429Z,99466.56
2022-10-23T02:50:56.835Z,99469.25
2022-10-23T02:53:23.254Z,99471.84
2022-10-23T02:55:52.798Z,99470.94
2022-10-23T02:58:31.588Z,99465.56
2022-10-23T03:01:19.518Z,99470.06
2022-10-23T03:03:50.258Z,99464.63
2022-10-23T03:06:17.061Z,99466.44
2022-10-23T03:08:53.775Z,99470.84
2022-10-23T03:11:20.423Z,99470.00
2022-10-23T03:13:46.865Z,99462.81
2022-10-23T03:16:13.423Z,99464.63
2022-10-23T03:18:39.887Z,99468.13
2022-10-23T03:24:34.981Z,99473.69
2022-10-23T03:27:01.388Z,99472.00
2022-10-23T03:29:27.850Z,99474.78
2022-10-23T03:31:55.822Z,99469.56
2022-10-23T03:34:22.605Z,99483.97
2022-10-23T03:36:48.988Z,99483.22
2022-10-23T03:39:16.355Z,99471.72
2022-10-23T03:41:42.856Z,99468.28
2022-10-23T03:44:09.253Z,99464.88
2022-10-23T03:46:35.658Z,99470.22
2022-10-23T03:49:02.090Z,99474.69
2022-10-23T03:51:28.486Z,99463.19
2022-10-23T03:53:55.058Z,99472.06
2022-10-23T03:56:21.462Z,99463.34
2022-10-23T03:58:47.934Z,99460.81
2022-10-23T04:01:14.649Z,99462.72
2022-10-23T04:03:42.701Z,99464.59
2022-10-23T04:06:09.238Z,99468.19
2022-10-23T04:08:35.903Z,99470.03
2022-10-23T04:11:02.341Z,99471.94
2022-10-23T04:13:28.926Z,99473.72
2022-10-23T04:15:55.326Z,99471.16
2022-10-23T04:18:21.754Z,99462.31
2022-10-23T04:20:49.218Z,99465.91
2022-10-23T04:23:15.862Z,99460.78
2022-10-23T04:25:42.408Z,99470.09
2022-10-23T04:28:08.928Z,99467.69
2022-10-23T04:30:35.397Z,99467.63
2022-10-23T04:33:01.926Z,99453.63
2022-10-23T04:35:28.360Z,99460.03
2022-10-23T04:37:54.790Z,99453.88
2022-10-23T04:40:21.196Z,99456.53
2022-10-23T04:42:47.640Z,99459.97
2022-10-23T04:45:14.101Z,99464.41
2022-10-23T04:47:40.607Z,99463.47
2022-10-23T04:50:07.179Z,99451.84
2022-10-23T04:52:33.803Z,99453.69
2022-10-23T04:55:00.208Z,99453.75
2022-10-23T04:57:26.629Z,99461.03
2022-10-23T04:59:53.091Z,99469.13
2022-10-23T05:02:19.584Z,99461.25
2022-10-23T05:04:46.018Z,99459.66
2022-10-23T05:07:12.432Z,99462.31
2022-10-23T05:09:38.954Z,99465.13
2022-10-23T05:12:05.418Z,99469.56
2022-10-23T05:14:31.949Z,99462.47
2022-10-23T05:17:03.472Z,99463.50
2022-10-23T05:19:34.635Z,99464.53
2022-10-23T05:22:01.697Z,99465.41
2022-10-23T05:24:28.167Z,99457.44
2022-10-23T05:26:54.541Z,99459.25
2022-10-23T05:29:21.031Z,99463.75
2022-10-23T05:31:54.026Z,99466.44
2022-10-23T05:34:22.615Z,99468.25
2022-10-23T05:36:49.145Z,99465.50
2022-10-23T05:39:16.020Z,99463.72
2022-10-23T05:41:42.555Z,99466.41
2022-10-23T05:44:08.933Z,99459.25
2022-10-23T05:46:39.935Z,99456.56
2022-10-23T05:49:06.330Z,99456.63
2022-10-23T05:51:35.728Z,99458.41
2022-10-23T05:54:02.179Z,99453.94
2022-10-23T05:56:28.559Z,99450.34
2022-10-23T05:58:55.079Z,99452.84
2022-10-23T06:01:23.211Z,99455.34
2022-10-23T06:03:49.786Z,99448.94
2022-10-23T06:06:16.252Z,99457.53
2022-10-23T06:08:42.727Z,99459.06
2022-10-23T06:11:10.535Z,99467.69
2022-10-23T06:13:37.432Z,99465.81
2022-10-23T06:16:10.430Z,99461.25
2022-10-23T06:18:36.997Z,99456.66
2022-10-23T06:21:03.662Z,99457.41
2022-10-23T06:23:30.721Z,99465.34
2022-10-23T06:25:57.130Z,99460.75
2022-10-23T06:28:23.538Z,99457.00
2022-10-23T06:30:50.005Z,99463.13
2022-10-23T06:33:16.424Z,99458.53
2022-10-23T06:35:43.024Z,99468.25
2022-10-23T06:38:10.554Z,99465.44
2022-10-23T06:40:37.389Z,99462.59
2022-10-23T06:43:04.628Z,99462.34
2022-10-23T06:45:33.924Z,99470.16
2022-10-23T06:48:00.406Z,99472.59
2022-10-23T06:50:27.440Z,99481.31
2022-10-23T06:52:54.443Z,99485.44
2022-10-23T06:55:21.174Z,99483.47
2022-10-23T06:57:47.602Z,99486.84
2022-10-23T07:00:14.183Z,99490.94
2022-10-23T07:02:40.824Z,99477.34
2022-10-23T07:05:09.892Z,99475.28
2022-10-23T07:07:39.185Z,99471.47
2022-10-23T07:10:05.908Z,99478.22
2022-10-23T07:12:32.310Z,99471.72
2022-10-23T07:14:58.723Z,99478.63
2022-10-23T07:17:25.099Z,99478.31
2022-10-23T07:19:51.530Z,99474.44
2022-10-23T07:22:17.919Z,99477.78
2022-10-23T07:24:44.367Z,99479.19
2022-10-23T07:27:10.770Z,99483.28
2022-10-23T07:29:37.460Z,99483.84
2022-10-23T07:32:04.592Z,99485.31
2022-10-23T07:34:32.118Z,99477.75
2022-10-23T07:36:58.597Z,99481.19
2022-10-23T07:39:25.090Z,99488.97
2022-10-23T07:41:51.520Z,99485.09
2022-10-23T07:44:17.952Z,99483.81
2022-10-23T07:46:44.367Z,99479.03
2022-10-23T07:49:11.215Z,99472.22
2022-10-23T07:51:37.609Z,99474.41
2022-10-23T07:54:04.157Z,99467.81
2022-10-23T07:56:30.696Z,99470.75
2022-10-23T07:58:57.130Z,99475.56
2022-10-23T08:01:34.004Z,99461.41
2022-10-23T08:04:01.191Z,99459.09
2022-10-23T08:06:27.592Z,99466.56
2022-10-23T08:08:54.071Z,99472.19
2022-10-23T08:11:25.783Z,99469.72
2022-10-23T08:13:52.490Z,99469.13
2022-10-23T08:16:18.895Z,99468.56
2022-10-23T08:18:45.437Z,99477.06
2022-10-23T08:21:12.071Z,99470.22
2022-10-23T08:23:38.522Z,99474.94
2022-10-23T08:26:06.042Z,99474.47
2022-10-23T08:28:32.886Z,99466.78
2022-10-23T08:30:59.499Z,99477.94
2022-10-23T08:33:26.000Z,99470.34
2022-10-23T08:35:52.428Z,99468.03
2022-10-23T08:38:18.928Z,99462.44
2022-10-23T08:40:46.115Z,99463.94
2022-10-23T08:43:12.549Z,99462.41
2022-10-23T08:45:56.641Z,99458.91
2022-10-23T08:48:30.605Z,99449.31
2022-10-23T08:50:59.527Z,99460.13
2022-10-23T08:53:58.366Z,99457.06
2022-10-23T08:56:28.369Z,99451.94
2022-10-23T08:59:20.398Z,99460.00
2022-10-23T09:01:49.657Z,99458.56
2022-10-23T09:04:16.509Z,99455.56
2022-10-23T09:07:06.751Z,99460.41
2022-10-23T09:09:33.693Z,99465.16
2022-10-23T09:12:03.140Z,99450.28
2022-10-23T09:14:48.353Z,99450.56
2022-10-23T09:17:24.993Z,99439.41
2022-10-23T09:19:59.706Z,99440.94
2022-10-23T09:22:27.281Z,99442.09
2022-10-23T09:24:54.021Z,99439.34
2022-10-23T09:27:20.645Z,99436.38
2022-10-23T09:29:51.262Z,99426.91
2022-10-23T09:32:20.109Z,99426.84
2022-10-23T09:34:51.231Z,99429.72
2022-10-23T09:37:21.850Z,99425.06
2022-10-23T09:39:48.563Z,99431.56
2022-10-23T09:42:25.311Z,99431.16
2022-10-23T09:44:53.487Z,99441.19
2022-10-23T09:47:22.707Z,99438.13
2022-10-23T09:49:50.691Z,99439.97
2022-10-23T09:52:17.751Z,99452.16
2022-10-23T09:54:48.326Z,99443.13
2022-10-23T09:57:47.325Z,99439.16
2022-10-23T10:00:14.017Z,99431.75
2022-10-23T10:02:41.376Z,99434.50
2022-10-23T10:05:25.903Z,99431.56
2022-10-23T10:08:03.586Z,99437.22
2022-10-23T10:10:34.775Z,99436.69
2022-10-23T10:13:04.267Z,99436.03
2022-10-23T10:15:37.780Z,99427.91
2022-10-23T10:18:19.816Z,99432.88
2022-10-23T10:21:05.021Z,99425.19
2022-10-23T10:24:07.231Z,99416.59
2022-10-23T10:26:45.643Z,99417.56
2022-10-23T10:29:34.715Z,99417.09
2022-10-23T10:32:13.537Z,99404.38
2022-10-23T10:34:49.088Z,99404.75
2022-10-23T10:37:29.501Z,99406.47
2022-10-23T10:40:03.357Z,99399.84
2022-10-23T10:42:33.064Z,99409.69
2022-10-23T10:45:22.906Z,99403.59
2022-10-23T10:47:51.713Z,99391.66
2022-10-23T10:50:21.974Z,99397.00
2022-10-23T10:53:06.746Z,99407.75
2022-10-23T10:55:39.175Z,99403.47
2022-10-23T10:58:05.594Z,99395.34
2022-10-23T11:00:33.550Z,99389.25
2022-10-23T11:03:02.968Z,99384.16
2022-10-23T11:05:29.378Z,99378.59
2022-10-23T11:07:59.028Z,99374.91
2022-10-23T11:10:26.641Z,99378.84
2022-10-23T11:12:53.141Z,99373.63
2022-10-23T11:15:23.983Z,99360.81
2022-10-23T11:18:13.845Z,99355.72
2022-10-23T11:20:50.748Z,99353.97
2022-10-23T11:23:17.219Z,99351.97
2022-10-23T11:25:50.326Z,99347.75
2022-10-23T11:28:16.770Z,99356.56
2022-10-23T11:31:03.410Z,99348.44
2022-10-23T11:33:59.479Z,99343.34
2022-10-23T11:36:45.861Z,99332.06
2022-10-23T11:39:25.022Z,99338.69
2022-10-23T11:41:53.357Z,99330.97
2022-10-23T11:44:25.697Z,99326.38
2022-10-23T11:47:05.948Z,99329.28
2022-10-23T11:49:32.518Z,99328.06
2022-10-23T11:52:03.102Z,99325.41
2022-10-23T11:54:29.807Z,99316.78
2022-10-23T11:57:11.394Z,99313.72
2022-10-23T11:59:37.935Z,99320.94
2022-10-23T12:02:20.817Z,99312.69
2022-10-23T12:04:48.534Z,99311.44
2022-10-23T12:07:17.742Z,99305.00
2022-10-23T12:09:45.391Z,99308.22
2022-10-23T12:12:11.754Z,99303.91
2022-10-23T12:14:48.696Z,99301.31
2022-10-23T12:17:24.190Z,99303.06
2022-10-23T12:19:52.344Z,99296.13
2022-10-23T12:22:20.854Z,99293.13
2022-10-23T12:25:09.191Z,99286.09
2022-10-23T12:27:42.039Z,99290.13
2022-10-23T12:30:17.931Z,99280.72
2022-10-23T12:32:47.455Z,99277.34
2022-10-23T12:35:19.775Z,99280.91
2022-10-23T12:37:54.595Z,99275.59
2022-10-23T12:40:21.092Z,99272.38
2022-10-23T12:42:52.835Z,99269.13
2022-10-23T12:45:24.884Z,99264.56
2022-10-23T12:47:51.966Z,99262.81
2022-10-23T12:50:18.778Z,99249.25
2022-10-23T12:52:52.072Z,99244.94
2022-10-23T12:55:18.956Z,99241.72
2022-10-23T12:57:46.199Z,99246.78
2022-10-23T13:00:17.801Z,99239.63
2022-10-23T13:02:44.264Z,99234.97
2022-10-23T13:05:13.333Z,99235.31
2022-10-23T13:07:44.001Z,99227.75
2022-10-23T13:10:14.989Z,99230.28
2022-10-23T13:15:16.487Z,99219.41
2022-10-23T13:17:47.759Z,99220.41
2022-10-23T13:20:16.966Z,99221.50
2022-10-23T13:22:44.361Z,99214.59
2022-10-23T13:25:40.495Z,99216.22
2022-10-23T13:28:26.475Z,99213.63
2022-10-23T13:30:58.980Z,99210.38
2022-10-23T13:33:26.147Z,99215.03
2022-10-23T13:36:16.595Z,99215.34
2022-10-23T13:39:06.401Z,99216.66
2022-10-23T13:41:46.237Z,99209.81
2022-10-23T13:44:13.558Z,99201.16
2022-10-23T13:46:39.987Z,99203.66
2022-10-23T13:49:06.441Z,99210.25
2022-10-23T13:51:42.526Z,99206.88
2022-10-23T13:54:16.850Z,99204.09
2022-10-23T13:56:43.311Z,99198.31
2022-10-23T13:59:12.942Z,99196.63
2022-10-23T14:01:39.611Z,99206.66
2022-10-23T14:04:06.637Z,99198.53
2022-10-23T14:06:33.311Z,99195.53
2022-10-23T14:08:59.787Z,99194.09
2022-10-23T14:11:26.241Z,99186.44
2022-10-23T14:13:53.433Z,99193.78
2022-10-23T14:16:20.996Z,99186.13
2022-10-23T14:18:47.905Z,99185.47
2022-10-23T14:21:15.592Z,99184.91
2022-10-23T14:23:41.987Z,99184.91
2022-10-23T14:26:10.203Z,99169.50
2022-10-23T14:28:37.061Z,99170.59
2022-10-23T14:31:07.839Z,99168.00
2022-10-23T14:33:34.307Z,99168.00
2022-10-23T14:36:00.867Z,99164.44
2022-10-23T14:38:27.696Z,99155.69
2022-10-23T14:40:54.184Z,99150.69
2022-10-23T14:43:21.071Z,99144.53
2022-10-23T14:45:47.657Z,99140.50
2022-10-23T14:48:14.127Z,99144.94
2022-10-23T14:50:44.898Z,99147.84
2022-10-23T14:53:11.531Z,99148.16
2022-10-23T14:55:38.256Z,99149.34
2022-10-23T14:58:04.746Z,99144.66
2022-10-23T15:00:31.445Z,99139.75
2022-10-23T15:02:58.041Z,99137.59
2022-10-23T15:05:24.519Z,99135.28
2022-10-23T15:07:50.888Z,99124.78
2022-10-23T15:12:49.111Z,99120.72
2022-10-23T15:15:15.640Z,99109.66
2022-10-23T15:17:42.374Z,99103.16
2022-10-23T15:20:09.050Z,99098.81
2022-10-23T15:22:35.622Z,99095.75
2022-10-23T15:25:02.039Z,99103.16
2022-10-23T15:27:28.617Z,99097.88
2022-10-23T15:29:55.056Z,99107.34
2022-10-23T15:32:21.529Z,99116.97
2022-10-23T15:34:49.873Z,99107.22
2022-10-23T15:37:16.425Z,99105.81
2022-10-23T15:39:42.954Z,99101.94
2022-10-23T15:42:10.002Z,99103.28
2022-10-23T15:44:36.942Z,99101.97
2022-10-23T15:47:03.557Z,99111.00
2022-10-23T15:49:30.857Z,99113.81
2022-10-23T15:51:57.749Z,99109.50
2022-10-23T15:54:26.958Z,99097.28
2022-10-23T15:56:55.827Z,99107.41
2022-10-23T15:59:23.659Z,99110.38
2022-10-23T16:01:50.256Z,99095.81
2022-10-23T16:04:17.331Z,99093.22
2022-10-23T16:06:44.272Z,99097.06
2022-10-23T16:09:11.455Z,99089.06
2022-10-23T16:11:39.260Z,99082.22
2022-10-23T16:14:06.019Z,99081.22
2022-10-23T16:16:33.079Z,99085.88
2022-10-23T16:19:00.593Z,99089.97
2022-10-23T16:21:28.394Z,99071.34
2022-10-23T16:23:55.595Z,99082.22
2022-10-23T16:26:23.093Z,99074.31
2022-10-23T16:28:59.494Z,99073.34
2022-10-23T16:31:26.471Z,99075.94
2022-10-23T16:33:53.426Z,99072.38
2022-10-23T16:36:20.741Z,99062.34
2022-10-23T16:38:47.216Z,99063.25
2022-10-23T16:41:17.320Z,99066.81
2022-10-23T16:43:43.700Z,99074.72
2022-10-23T16:46:14.557Z,99054.97
2022-10-23T16:48:41.074Z,99058.91
2022-10-23T16:51:15.201Z,99056.50
2022-10-23T16:53:42.004Z,99052.94
2022-10-23T16:56:10.415Z,99055.91
2022-10-23T16:58:37.258Z,99051.38
2022-10-23T17:01:07.802Z,99046.56
2022-10-23T17:03:35.821Z,99042.78
2022-10-23T17:06:05.030Z,99037.31
2022-10-23T17:08:34.138Z,99035.69
2022-10-23T17:11:17.186Z,99030.28
2022-10-23T17:13:55.152Z,99037.50
2022-10-23T17:16:28.000Z,99033.28
2022-10-23T17:18:54.830Z,99041.16
2022-10-23T17:21:21.786Z,99031.34
2022-10-23T17:23:48.859Z,99033.72
2022-10-23T17:26:17.170Z,99027.47
2022-10-23T17:28:44.115Z,99030.28
2022-10-23T17:31:19.729Z,99026.81
2022-10-23T17:33:46.660Z,99015.25
2022-10-23T17:36:13.806Z,99018.03
2022-10-23T17:38:40.373Z,99017.28
2022-10-23T17:41:07.744Z,99018.16
2022-10-23T17:43:34.986Z,99017.47
2022-10-23T17:46:02.666Z,99010.16
2022-10-23T17:48:31.032Z,99012.88
2022-10-23T17:51:00.914Z,99009.28
2022-10-23T17:53:27.352Z,98986.75
2022-10-23T17:55:53.833Z,98983.47
2022-10-23T17:58:20.198Z,98983.47
2022-10-23T18:00:46.611Z,98977.13
2022-10-23T18:03:15.498Z,98975.19
2022-10-23T18:05:45.540Z,98978.19
2022-10-23T18:08:11.963Z,98977.31
2022-10-23T18:10:38.422Z,98971.16
2022-10-23T18:13:04.865Z,98971.06
2022-10-23T18:15:33.537Z,98976.75
2022-10-23T18:17:59.972Z,98972.13
2022-10-23T18:20:26.491Z,98971.16
2022-10-23T18:22:52.887Z,98974.06
2022-10-23T18:25:19.383Z,98962.31
2022-10-23T18:27:45.927Z,98966.91
2022-10-23T18:30:12.595Z,98962.47
2022-10-23T18:32:39.064Z,98956.25
2022-10-23T18:35:05.586Z,98947.38
2022-10-23T18:37:34.709Z,98945.00
2022-10-23T18:40:04.455Z,98948.66
2022-10-23T18:42:30.953Z,98955.09
2022-10-23T18:44:57.356Z,98962.41
2022-10-23T18:47:23.844Z,98957.13
2022-10-23T18:49:50.355Z,98946.41
2022-10-23T18:52:16.789Z,98943.66
2022-10-23T18:54:43.309Z,98928.44
2022-10-23T18:57:09.732Z,98927.25
2022-10-23T18:59:36.297Z,98915.81
2022-10-23T19:02:02.862Z,98915.63
2022-10-23T19:04:31.749Z,98915.63
2022-10-23T19:07:00.746Z,98914.66
2022-10-23T19:09:27.119Z,98921.00
2022-10-23T19:11:53.589Z,98925.72
2022-10-23T19:14:20.214Z,98928.63
2022-10-23T19:17:01.367Z,98932.94
2022-10-23T19:19:33.207Z,98925.91
2022-10-23T19:22:00.085Z,98936.91
2022-10-23T19:24:32.083Z,98933.16
2022-10-23T19:27:00.765Z,98934.22
2022-10-23T19:29:29.037Z,98924.41
2022-10-23T19:31:55.712Z,98913.44
2022-10-23T19:34:24.733Z,98902.53
2022-10-23T19:36:52.614Z,98901.47
2022-10-23T19:39:19.096Z,98902.44
2022-10-23T19:41:45.952Z,98896.06
2022-10-23T19:44:13.670Z,98895.69
2022-10-23T19:46:40.065Z,98896.06
2022-10-23T19:49:06.987Z,98890.66
2022-10-23T19:51:33.429Z,98890.56
2022-10-23T19:53:59.903Z,98889.28
2022-10-23T19:56:26.385Z,98883.03
2022-10-23T19:58:52.899Z,98884.75
2022-10-23T20:01:21.129Z,98873.97
2022-10-23T20:03:50.365Z,98873.00
2022-10-23T20:06:19.365Z,98875.78
2022-10-23T20:08:46.246Z,98867.63
2022-10-23T20:11:20.753Z,98864.03
2022-10-23T20:13:48.209Z,98858.44
2022-10-23T20:16:18.950Z,98852.41
2022-10-23T20:18:45.520Z,98854.97
2022-10-23T20:21:11.993Z,98841.38
2022-10-23T20:23:38.557Z,98851.31
2022-10-23T20:26:06.416Z,98841.94
2022-10-23T20:28:32.918Z,98839.06
2022-10-23T20:30:59.362Z,98836.25
2022-10-23T20:33:25.819Z,98835.38
2022-10-23T20:35:52.821Z,98835.38
2022-10-23T20:38:19.342Z,98839.72
2022-10-23T20:40:45.939Z,98833.44
2022-10-23T20:43:12.315Z,98832.28
2022-10-23T20:45:38.746Z,98816.66
2022-10-23T20:48:05.387Z,98808.59
2022-10-23T20:50:34.090Z,98813.97
2022-10-23T20:53:00.514Z,98813.75
2022-10-23T20:55:26.934Z,98822.63
2022-10-23T20:57:53.306Z,98829.94
2022-10-23T21:00:21.111Z,98823.38
2022-10-23T21:02:49.942Z,98840.44
2022-10-23T21:05:18.579Z,98845.72
2022-10-23T21:07:45.272Z,98850.25
2022-10-23T21:10:11.755Z,98853.50
2022-10-23T21:12:38.152Z,98857.81
2022-10-23T21:15:04.789Z,98853.19
2022-10-23T21:17:35.672Z,98856.34
2022-10-23T21:20:02.573Z,98858.72
2022-10-23T21:22:29.052Z,98861.22
2022-10-23T21:24:56.966Z,98871.81
2022-10-23T21:27:23.377Z,98879.78
2022-10-23T21:29:49.805Z,98888.53
2022-10-23T21:32:16.311Z,98912.72
2022-10-23T21:34:42.715Z,98934.25
2022-10-23T21:37:13.901Z,98946.56
2022-10-23T21:39:42.257Z,98956.94
2022-10-23T21:42:08.617Z,98963.41
2022-10-23T21:44:35.106Z,98964.28
2022-10-23T21:47:01.453Z,98982.44
2022-10-23T21:49:27.921Z,98988.91
2022-10-23T21:51:55.117Z,99004.03
2022-10-23T21:54:21.695Z,99002.72
2022-10-23T21:56:52.236Z,98995.03
2022-10-23T21:59:20.380Z,98996.38
2022-10-23T22:01:47.582Z,99002.75
2022-10-23T22:04:15.017Z,99013.94
2022-10-23T22:06:42.427Z,98996.69
2022-10-23T22:09:09.715Z,98990.19
2022-10-23T22:11:36.089Z,98984.22
2022-10-23T22:14:02.494Z,98985.38
2022-10-23T22:16:28.826Z,98988.06
2022-10-23T22:18:55.275Z,98988.16
2022-10-23T22:21:23.528Z,98995.53
2022-10-23T22:23:50.634Z,99000.13
2022-10-23T22:26:17.029Z,99012.84
2022-10-23T22:28:43.448Z,99014.59
2022-10-23T22:31:14.588Z,99013.78
2022-10-23T22:33:41.121Z,99003.09
2022-10-23T22:36:07.759Z,98993.84
2022-10-23T22:38:34.079Z,98998.66
2022-10-23T22:41:01.931Z,98970.63
2022-10-23T22:43:28.993Z,98970.84
2022-10-23T22:46:15.668Z,98966.81
2022-10-23T22:48:45.312Z,98946.44
2022-10-23T22:51:13.412Z,98942.22
2022-10-23T22:53:39.821Z,98944.03
2022-10-23T22:56:09.926Z,98950.44
2022-10-23T22:58:36.756Z,98949.44
2022-10-23T23:01:07.861Z,98951.06
2022-10-23T23:03:37.521Z,98953.50
2022-10-23T23:06:05.580Z,98960.75
2022-10-23T23:08:32.099Z,98954.44
2022-10-23T23:10:59.102Z,98958.13
2022-10-23T23:13:26.241Z,98941.25
2022-10-23T23:15:53.230Z,98960.03
2022-10-23T23:18:19.579Z,98945.03
2022-10-23T23:20:46.128Z,98922.56
2022-10-23T23:23:14.111Z,98931.63
2022-10-23T23:25:45.058Z,98944.44
2022-10-23T23:28:11.970Z,98959.88
2022-10-23T23:30:38.868Z,98956.28
2022-10-23T23:33:05.360Z,98947.53
2022-10-23T23:35:31.754Z,98956.22
2022-10-23T23:37:58.180Z,98951.97
2022-10-23T23:40:24.576Z,98956.69
2022-10-23T23:42:51.052Z,98957.97
2022-10-23T23:45:17.715Z,98957.19
2022-10-23T23:47:44.409Z,98952.75
2022-10-23T23:50:11.775Z,98953.94
2022-10-23T23:52:38.184Z,98955.00
2022-10-23T23:55:04.952Z,98946.91
2022-10-23T23:57:31.409Z,98944.41
2022-10-23T23:59:57.737Z,98936.22
